I'm testing a new template at https://dunchurchweather.co.uk/meteo/. Try it and see what you think.
Rain From: 26-05-2018 06:00 Until: 28-05-2018 00:00 warning for: Rain Level: Yellow info button

This weather station is in Dunchurch, Warwickshire.

The current conditions are clear, with a calculated cloudbase of 952m and a leaf wetness value of 0 (out of a maximum of 15).
The forecast is Increasing clouds with little temperature change. Precipitation possible within 24 to 48 hours.
There have been 6.73 hours of sunshine so far today and the sunniest day so far this year is 14 May 2018 (10.53 hrs).
The last significant rain was 25 May 2018 (14.0 mm) and the wettest day so far this year is 25 May 2018 (14.0 mm)


Webcam more information Webcam



Nearby METAR Reports

   
EGBE - Coventry Airport
Updated: Jan 1 1970 1:00 am
NOT Current
  
  
   Wind: Calm
Wind: Calm
EGBB - Birmingham Airport
Updated: May 26 2018 8:20 pm
Few Clouds  
Few Clouds  
   Wind: NE 12.7 mph
Wind: NE 12.7 mph
Temperature: 18°C
Dew Point: 9°C
Humidity: 56%
Barometer: 1020 hPa
Clouds: Few Clouds
Visibility: More than 10 km
Cloud details: Few Clouds 1828.8 m
EGBB 261920Z 05011KT 9999 FEW060TCU 18/09 Q1020
EGNX - East Midlands Airport
Updated: May 26 2018 8:20 pm
Clear  
Clear  
   Wind: NE 15 mph
Wind: NE 15 mph
Temperature: 17°C
Dew Point: 8°C
Humidity: 56%
Barometer: 1021 hPa
Visibility: More than 10 km
Cloud details: Clear m
EGNX 261920Z 05013KT CAVOK 17/08 Q1021
EGLL - London Heathrow Airport
Updated: May 26 2018 8:20 pm
Clear  
Clear  
   Wind: ENE 12.7 mph
Wind: ENE 12.7 mph
Temperature: 23°C
Dew Point: 15°C
Humidity: 61%
Barometer: 1017 hPa
Clouds: Clear
Visibility: More than 10 km
Cloud details: Clear m
EGLL 261920Z AUTO 06011KT 9999 NCD 23/15 Q1017 NOSIG
EGKK - Gatwick Airport
Updated: May 26 2018 8:20 pm
Few Clouds  
Few Clouds  
   Wind: East 13.8 mph
Wind: East 13.8 mph
Temperature: 20°C
Dew Point: 16°C
Humidity: 78%
Barometer: 1017 hPa
Clouds: Few Clouds
Visibility: More than 10 km
Cloud details: Few Clouds 1036.3 m
EGKK 261920Z 08012KT 9999 FEW034 20/16 Q1017
EGCC - Manchester Airport
Updated: May 26 2018 8:20 pm
Clear  
Clear  
   Wind: ENE 13.8 mph
Wind: ENE 13.8 mph
Temperature: 19°C
Dew Point: 8°C
Humidity: 49%
Barometer: 1022 hPa
Clouds: Clear
Visibility: More than 10 km
Cloud details: Clear m
EGCC 261920Z AUTO 07012KT 9999 NCD 19/08 Q1022 NOSIG

Script developed by  Saratoga-weather.org Adapted for the template by  Weerstation Leuven